sensor_id;sensor_type;location;lat;lon;timestamp;pressure;altitude;pressure_sealevel;temperature;humidity
22688;BME280;11511;51.514;7.080;2023-04-15T00:01:21;100252.16;;;4.68;100.00
22688;BME280;11511;51.514;7.080;2023-04-15T00:03:50;100246.25;;;4.60;100.00
22688;BME280;11511;51.514;7.080;2023-04-15T00:06:21;100243.78;;;4.51;100.00
22688;BME280;11511;51.514;7.080;2023-04-15T00:08:48;100246.50;;;4.45;100.00
22688;BME280;11511;51.514;7.080;2023-04-15T00:11:15;100240.56;;;4.36;100.00
22688;BME280;11511;51.514;7.080;2023-04-15T00:13:41;100245.88;;;4.32;100.00
22688;BME280;11511;51.514;7.080;2023-04-15T00:16:07;100239.97;;;4.21;100.00
22688;BME280;11511;51.514;7.080;2023-04-15T00:18:33;100243.47;;;4.18;100.00
22688;BME280;11511;51.514;7.080;2023-04-15T00:21:00;100245.09;;;4.25;100.00
22688;BME280;11511;51.514;7.080;2023-04-15T00:23:25;100245.16;;;4.22;100.00
22688;BME280;11511;51.514;7.080;2023-04-15T00:25:51;100245.16;;;4.21;100.00
22688;BME280;11511;51.514;7.080;2023-04-15T00:28:16;100257.44;;;4.14;100.00
22688;BME280;11511;51.514;7.080;2023-04-15T00:30:42;100253.72;;;4.78;100.00
22688;BME280;11511;51.514;7.080;2023-04-15T00:33:08;100258.88;;;5.26;100.00
22688;BME280;11511;51.514;7.080;2023-04-15T00:35:34;100257.44;;;5.51;100.00
22688;BME280;11511;51.514;7.080;2023-04-15T00:38:00;100254.81;;;5.53;100.00
22688;BME280;11511;51.514;7.080;2023-04-15T00:40:26;100251.44;;;5.48;100.00
22688;BME280;11511;51.514;7.080;2023-04-15T00:42:51;100246.53;;;5.34;100.00
22688;BME280;11511;51.514;7.080;2023-04-15T00:45:17;100250.13;;;5.28;100.00
22688;BME280;11511;51.514;7.080;2023-04-15T00:47:43;100250.13;;;5.27;100.00
22688;BME280;11511;51.514;7.080;2023-04-15T00:50:10;100250.19;;;5.24;100.00
22688;BME280;11511;51.514;7.080;2023-04-15T00:52:37;100243.84;;;4.94;100.00
22688;BME280;11511;51.514;7.080;2023-04-15T00:55:03;100249.91;;;4.94;100.00
22688;BME280;11511;51.514;7.080;2023-04-15T00:57:29;100249.31;;;4.82;100.00
22688;BME280;11511;51.514;7.080;2023-04-15T00:59:56;100248.63;;;4.72;100.00
22688;BME280;11511;51.514;7.080;2023-04-15T01:02:22;100253.13;;;4.64;100.00
22688;BME280;11511;51.514;7.080;2023-04-15T01:04:48;100250.88;;;4.92;100.00
22688;BME280;11511;51.514;7.080;2023-04-15T01:07:13;100247.06;;;5.08;100.00
22688;BME280;11511;51.514;7.080;2023-04-15T01:09:39;100245.28;;;5.10;100.00
22688;BME280;11511;51.514;7.080;2023-04-15T01:12:06;100243.63;;;5.04;100.00
22688;BME280;11511;51.514;7.080;2023-04-15T01:14:32;100252.00;;;5.20;100.00
22688;BME280;11511;51.514;7.080;2023-04-15T01:16:58;100248.66;;;5.15;100.00
22688;BME280;11511;51.514;7.080;2023-04-15T01:19:23;100240.28;;;4.98;100.00
22688;BME280;11511;51.514;7.080;2023-04-15T01:21:49;100246.03;;;4.70;100.00
22688;BME280;11511;51.514;7.080;2023-04-15T01:24:16;100249.47;;;4.72;100.00
22688;BME280;11511;51.514;7.080;2023-04-15T01:26:42;100246.03;;;4.70;100.00
22688;BME280;11511;51.514;7.080;2023-04-15T01:29:08;100252.13;;;5.16;100.00
22688;BME280;11511;51.514;7.080;2023-04-15T01:31:33;100247.78;;;5.16;100.00
22688;BME280;11511;51.514;7.080;2023-04-15T01:33:59;100252.81;;;5.24;100.00
22688;BME280;11511;51.514;7.080;2023-04-15T01:36:25;100251.50;;;5.03;100.00
22688;BME280;11511;51.514;7.080;2023-04-15T01:38:50;100248.19;;;4.93;100.00
22688;BME280;11511;51.514;7.080;2023-04-15T01:41:21;100258.41;;;5.05;100.00
22688;BME280;11511;51.514;7.080;2023-04-15T01:43:47;100261.31;;;4.92;100.00
22688;BME280;11511;51.514;7.080;2023-04-15T01:46:12;100252.75;;;4.84;100.00
22688;BME280;11511;51.514;7.080;2023-04-15T01:48:38;100256.66;;;4.61;100.00
22688;BME280;11511;51.514;7.080;2023-04-15T01:51:03;100261.22;;;4.49;100.00
22688;BME280;11511;51.514;7.080;2023-04-15T01:53:29;100258.34;;;4.64;100.00
22688;BME280;11511;51.514;7.080;2023-04-15T01:55:54;100260.88;;;4.67;100.00
22688;BME280;11511;51.514;7.080;2023-04-15T01:58:20;100250.63;;;4.58;100.00
22688;BME280;11511;51.514;7.080;2023-04-15T02:00:46;100256.69;;;4.60;100.00
22688;BME280;11511;51.514;7.080;2023-04-15T02:03:12;100252.63;;;4.42;100.00
22688;BME280;11511;51.514;7.080;2023-04-15T02:05:37;100255.47;;;4.30;100.00
22688;BME280;11511;51.514;7.080;2023-04-15T02:08:02;100256.16;;;4.39;100.00
22688;BME280;11511;51.514;7.080;2023-04-15T02:10:28;100253.31;;;4.53;100.00
22688;BME280;11511;51.514;7.080;2023-04-15T02:12:53;100261.91;;;4.58;100.00
22688;BME280;11511;51.514;7.080;2023-04-15T02:15:18;100258.56;;;4.52;100.00
22688;BME280;11511;51.514;7.080;2023-04-15T02:17:44;100258.69;;;4.42;100.00
22688;BME280;11511;51.514;7.080;2023-04-15T02:20:14;100265.69;;;4.40;100.00
22688;BME280;11511;51.514;7.080;2023-04-15T02:22:40;100271.00;;;4.36;100.00
22688;BME280;11511;51.514;7.080;2023-04-15T02:25:06;100268.56;;;4.25;100.00
22688;BME280;11511;51.514;7.080;2023-04-15T02:27:32;100264.06;;;4.35;100.00
22688;BME280;11511;51.514;7.080;2023-04-15T02:29:58;100267.28;;;4.49;100.00
22688;BME280;11511;51.514;7.080;2023-04-15T02:32:23;100265.19;;;4.69;100.00
22688;BME280;11511;51.514;7.080;2023-04-15T02:34:48;100267.22;;;4.54;100.00
22688;BME280;11511;51.514;7.080;2023-04-15T02:37:13;100268.69;;;4.68;100.00
22688;BME280;11511;51.514;7.080;2023-04-15T02:39:40;100275.91;;;4.54;100.00
22688;BME280;11511;51.514;7.080;2023-04-15T02:42:05;100286.66;;;4.36;100.00
22688;BME280;11511;51.514;7.080;2023-04-15T02:44:31;100293.47;;;4.41;100.00
22688;BME280;11511;51.514;7.080;2023-04-15T02:46:57;100290.00;;;4.41;100.00
22688;BME280;11511;51.514;7.080;2023-04-15T02:49:23;100295.91;;;4.54;100.00
22688;BME280;11511;51.514;7.080;2023-04-15T02:51:49;100298.56;;;4.51;100.00
22688;BME280;11511;51.514;7.080;2023-04-15T02:54:20;100302.28;;;4.37;100.00
22688;BME280;11511;51.514;7.080;2023-04-15T02:56:47;100301.69;;;4.17;100.00
22688;BME280;11511;51.514;7.080;2023-04-15T02:59:12;100297.53;;;4.07;100.00
22688;BME280;11511;51.514;7.080;2023-04-15T03:01:37;100302.00;;;3.97;100.00
22688;BME280;11511;51.514;7.080;2023-04-15T03:04:03;100308.97;;;3.97;100.00
22688;BME280;11511;51.514;7.080;2023-04-15T03:06:28;100310.75;;;3.93;100.00
22688;BME280;11511;51.514;7.080;2023-04-15T03:08:54;100304.97;;;3.71;100.00
22688;BME280;11511;51.514;7.080;2023-04-15T03:11:20;100302.50;;;3.61;100.00
22688;BME280;11511;51.514;7.080;2023-04-15T03:13:46;100304.94;;;3.76;100.00
22688;BME280;11511;51.514;7.080;2023-04-15T03:16:12;100316.22;;;3.77;100.00
22688;BME280;11511;51.514;7.080;2023-04-15T03:18:37;100311.75;;;3.83;100.00
22688;BME280;11511;51.514;7.080;2023-04-15T03:21:03;100311.00;;;3.77;100.00
22688;BME280;11511;51.514;7.080;2023-04-15T03:23:30;100320.63;;;3.71;100.00
22688;BME280;11511;51.514;7.080;2023-04-15T03:25:55;100324.91;;;3.76;100.00
22688;BME280;11511;51.514;7.080;2023-04-15T03:28:22;100322.44;;;3.65;100.00
22688;BME280;11511;51.514;7.080;2023-04-15T03:30:47;100330.41;;;3.54;100.00
22688;BME280;11511;51.514;7.080;2023-04-15T03:33:12;100331.16;;;3.61;100.00
22688;BME280;11511;51.514;7.080;2023-04-15T03:35:38;100330.19;;;3.69;100.00
22688;BME280;11511;51.514;7.080;2023-04-15T03:38:03;100334.09;;;4.02;100.00
22688;BME280;11511;51.514;7.080;2023-04-15T03:40:28;100333.78;;;4.22;100.00
22688;BME280;11511;51.514;7.080;2023-04-15T03:42:54;100337.41;;;4.12;100.00
22688;BME280;11511;51.514;7.080;2023-04-15T03:45:19;100334.00;;;4.08;100.00
22688;BME280;11511;51.514;7.080;2023-04-15T03:47:45;100338.25;;;4.14;100.00
22688;BME280;11511;51.514;7.080;2023-04-15T03:50:10;100341.63;;;4.21;100.00
22688;BME280;11511;51.514;7.080;2023-04-15T03:52:36;100339.81;;;4.26;100.00
22688;BME280;11511;51.514;7.080;2023-04-15T03:55:01;100343.28;;;4.26;100.00
22688;BME280;11511;51.514;7.080;2023-04-15T03:57:27;100346.81;;;4.22;100.00
22688;BME280;11511;51.514;7.080;2023-04-15T03:59:52;100345.03;;;4.26;100.00
22688;BME280;11511;51.514;7.080;2023-04-15T04:02:17;100348.59;;;4.19;100.00
22688;BME280;11511;51.514;7.080;2023-04-15T04:04:43;100344.28;;;4.18;100.00
22688;BME280;11511;51.514;7.080;2023-04-15T04:07:14;100342.59;;;4.12;100.00
22688;BME280;11511;51.514;7.080;2023-04-15T04:09:40;100346.09;;;4.11;100.00
22688;BME280;11511;51.514;7.080;2023-04-15T04:12:06;100347.41;;;3.83;100.00
22688;BME280;11511;51.514;7.080;2023-04-15T04:14:31;100350.13;;;3.72;100.00
22688;BME280;11511;51.514;7.080;2023-04-15T04:16:56;100346.66;;;3.71;100.00
22688;BME280;11511;51.514;7.080;2023-04-15T04:19:22;100352.81;;;3.66;100.00
22688;BME280;11511;51.514;7.080;2023-04-15T04:21:47;100362.44;;;3.58;100.00
22688;BME280;11511;51.514;7.080;2023-04-15T04:24:12;100358.22;;;3.49;100.00
22688;BME280;11511;51.514;7.080;2023-04-15T04:26:37;100360.06;;;3.39;100.00
22688;BME280;11511;51.514;7.080;2023-04-15T04:29:03;100364.44;;;3.37;100.00
22688;BME280;11511;51.514;7.080;2023-04-15T04:31:28;100368.81;;;3.34;100.00
22688;BME280;11511;51.514;7.080;2023-04-15T04:33:53;100368.69;;;3.46;100.00
22688;BME280;11511;51.514;7.080;2023-04-15T04:36:19;100366.97;;;3.42;100.00
22688;BME280;11511;51.514;7.080;2023-04-15T04:38:45;100371.41;;;3.34;100.00
22688;BME280;11511;51.514;7.080;2023-04-15T04:41:10;100377.47;;;3.36;100.00
22688;BME280;11511;51.514;7.080;2023-04-15T04:43:35;100379.19;;;3.37;100.00
22688;BME280;11511;51.514;7.080;2023-04-15T04:46:01;100388.75;;;3.33;100.00
22688;BME280;11511;51.514;7.080;2023-04-15T04:48:26;100385.25;;;3.36;100.00
22688;BME280;11511;51.514;7.080;2023-04-15T04:50:51;100390.34;;;3.50;100.00
22688;BME280;11511;51.514;7.080;2023-04-15T04:53:17;100393.72;;;3.56;100.00
22688;BME280;11511;51.514;7.080;2023-04-15T04:55:42;100394.72;;;3.45;100.00
22688;BME280;11511;51.514;7.080;2023-04-15T04:58:08;100403.38;;;3.47;100.00
22688;BME280;11511;51.514;7.080;2023-04-15T05:00:33;100403.31;;;3.54;100.00
22688;BME280;11511;51.514;7.080;2023-04-15T05:02:59;100409.28;;;3.61;100.00
22688;BME280;11511;51.514;7.080;2023-04-15T05:05:24;100406.78;;;3.55;100.00
22688;BME280;11511;51.514;7.080;2023-04-15T05:07:50;100414.59;;;3.55;100.00
22688;BME280;11511;51.514;7.080;2023-04-15T05:10:15;100416.38;;;3.51;100.00
22688;BME280;11511;51.514;7.080;2023-04-15T05:12:42;100416.25;;;3.57;100.00
22688;BME280;11511;51.514;7.080;2023-04-15T05:15:08;100422.97;;;3.80;100.00
22688;BME280;11511;51.514;7.080;2023-04-15T05:17:33;100428.94;;;3.88;100.00
22688;BME280;11511;51.514;7.080;2023-04-15T05:19:59;100419.50;;;3.81;100.00
22688;BME280;11511;51.514;7.080;2023-04-15T05:22:25;100428.00;;;3.95;100.00
22688;BME280;11511;51.514;7.080;2023-04-15T05:24:50;100428.84;;;3.97;100.00
22688;BME280;11511;51.514;7.080;2023-04-15T05:27:16;100425.47;;;3.87;100.00
22688;BME280;11511;51.514;7.080;2023-04-15T05:29:41;100435.03;;;3.87;100.00
22688;BME280;11511;51.514;7.080;2023-04-15T05:32:06;100441.00;;;3.96;100.00
22688;BME280;11511;51.514;7.080;2023-04-15T05:34:32;100446.19;;;3.98;100.00
22688;BME280;11511;51.514;7.080;2023-04-15T05:36:57;100447.81;;;4.08;100.00
22688;BME280;11511;51.514;7.080;2023-04-15T05:39:22;100450.25;;;4.19;100.00
22688;BME280;11511;51.514;7.080;2023-04-15T05:41:48;100446.59;;;4.35;100.00
22688;BME280;11511;51.514;7.080;2023-04-15T05:44:13;100448.16;;;4.45;100.00
22688;BME280;11511;51.514;7.080;2023-04-15T05:46:38;100452.41;;;4.52;100.00
22688;BME280;11511;51.514;7.080;2023-04-15T05:49:04;100453.19;;;4.59;100.00
22688;BME280;11511;51.514;7.080;2023-04-15T05:51:29;100457.38;;;4.67;100.00
22688;BME280;11511;51.514;7.080;2023-04-15T05:53:54;100465.13;;;4.73;100.00
22688;BME280;11511;51.514;7.080;2023-04-15T05:56:20;100459.81;;;4.80;100.00
22688;BME280;11511;51.514;7.080;2023-04-15T05:58:46;100464.09;;;4.85;100.00
22688;BME280;11511;51.514;7.080;2023-04-15T06:01:11;100457.84;;;4.94;100.00
22688;BME280;11511;51.514;7.080;2023-04-15T06:03:36;100460.34;;;5.01;100.00
22688;BME280;11511;51.514;7.080;2023-04-15T06:06:03;100461.09;;;5.09;100.00
22688;BME280;11511;51.514;7.080;2023-04-15T06:08:28;100459.38;;;5.08;100.00
22688;BME280;11511;51.514;7.080;2023-04-15T06:10:53;100456.63;;;5.16;100.00
22688;BME280;11511;51.514;7.080;2023-04-15T06:13:18;100456.47;;;5.24;100.00
22688;BME280;11511;51.514;7.080;2023-04-15T06:15:44;100460.78;;;5.26;100.00
22688;BME280;11511;51.514;7.080;2023-04-15T06:18:09;100472.03;;;5.30;100.00
22688;BME280;11511;51.514;7.080;2023-04-15T06:20:35;100469.38;;;5.33;100.00
22688;BME280;11511;51.514;7.080;2023-04-15T06:23:01;100470.97;;;5.41;100.00
22688;BME280;11511;51.514;7.080;2023-04-15T06:25:26;100474.16;;;5.57;100.00
22688;BME280;11511;51.514;7.080;2023-04-15T06:27:52;100483.56;;;5.67;100.00
22688;BME280;11511;51.514;7.080;2023-04-15T06:30:17;100477.19;;;5.82;100.00
22688;BME280;11511;51.514;7.080;2023-04-15T06:32:43;100481.44;;;5.89;100.00
22688;BME280;11511;51.514;7.080;2023-04-15T06:35:08;100473.31;;;6.03;100.00
22688;BME280;11511;51.514;7.080;2023-04-15T06:37:34;100485.34;;;6.11;100.00
22688;BME280;11511;51.514;7.080;2023-04-15T06:39:59;100485.97;;;6.24;100.00
22688;BME280;11511;51.514;7.080;2023-04-15T06:42:24;100485.91;;;6.27;100.00
22688;BME280;11511;51.514;7.080;2023-04-15T06:44:50;100487.22;;;6.47;100.00
22688;BME280;11511;51.514;7.080;2023-04-15T06:47:15;100488.81;;;6.54;100.00
22688;BME280;11511;51.514;7.080;2023-04-15T06:49:41;100488.69;;;6.58;100.00
22688;BME280;11511;51.514;7.080;2023-04-15T06:52:07;100488.28;;;6.78;100.00
22688;BME280;11511;51.514;7.080;2023-04-15T06:54:32;100490.84;;;6.79;100.00
22688;BME280;11511;51.514;7.080;2023-04-15T06:56:58;100501.41;;;6.75;100.00
22688;BME280;11511;51.514;7.080;2023-04-15T06:59:23;100498.38;;;6.93;100.00
22688;BME280;11511;51.514;7.080;2023-04-15T07:01:49;100499.34;;;6.89;100.00
22688;BME280;11511;51.514;7.080;2023-04-15T07:04:14;100500.88;;;6.98;100.00
22688;BME280;11511;51.514;7.080;2023-04-15T07:06:40;100507.59;;;7.09;100.00
22688;BME280;11511;51.514;7.080;2023-04-15T07:09:06;100500.38;;;7.19;100.00
22688;BME280;11511;51.514;7.080;2023-04-15T07:11:31;100496.56;;;7.32;100.00
22688;BME280;11511;51.514;7.080;2023-04-15T07:13:57;100500.56;;;7.45;100.00
22688;BME280;11511;51.514;7.080;2023-04-15T07:16:22;100511.06;;;7.45;100.00
22688;BME280;11511;51.514;7.080;2023-04-15T07:18:48;100511.72;;;7.54;100.00
22688;BME280;11511;51.514;7.080;2023-04-15T07:21:13;100517.34;;;7.72;100.00
22688;BME280;11511;51.514;7.080;2023-04-15T07:23:39;100517.06;;;7.83;100.00
22688;BME280;11511;51.514;7.080;2023-04-15T07:26:04;100515.16;;;7.90;100.00
22688;BME280;11511;51.514;7.080;2023-04-15T07:28:30;100504.97;;;8.10;100.00
22688;BME280;11511;51.514;7.080;2023-04-15T07:30:55;100514.22;;;8.22;100.00
22688;BME280;11511;51.514;7.080;2023-04-15T07:33:24;100512.28;;;8.59;100.00
22688;BME280;11511;51.514;7.080;2023-04-15T07:35:49;100507.91;;;8.88;100.00
22688;BME280;11511;51.514;7.080;2023-04-15T07:38:14;100510.81;;;9.06;100.00
22688;BME280;11511;51.514;7.080;2023-04-15T07:40:40;100508.66;;;9.19;100.00
22688;BME280;11511;51.514;7.080;2023-04-15T07:43:06;100517.50;;;9.43;100.00
22688;BME280;11511;51.514;7.080;2023-04-15T07:45:31;100514.59;;;9.26;100.00
22688;BME280;11511;51.514;7.080;2023-04-15T07:47:57;100515.28;;;9.57;100.00
22688;BME280;11511;51.514;7.080;2023-04-15T07:50:23;100524.44;;;10.45;100.00
22688;BME280;11511;51.514;7.080;2023-04-15T07:52:49;100515.06;;;10.61;100.00
22688;BME280;11511;51.514;7.080;2023-04-15T07:55:16;100511.22;;;11.13;100.00
22688;BME280;11511;51.514;7.080;2023-04-15T07:57:44;100519.41;;;11.28;100.00
22688;BME280;11511;51.514;7.080;2023-04-15T08:00:10;100524.09;;;10.54;100.00
22688;BME280;11511;51.514;7.080;2023-04-15T08:02:35;100517.88;;;10.33;100.00
22688;BME280;11511;51.514;7.080;2023-04-15T08:05:01;100522.53;;;10.48;100.00
22688;BME280;11511;51.514;7.080;2023-04-15T08:07:28;100518.38;;;10.43;100.00
22688;BME280;11511;51.514;7.080;2023-04-15T08:09:54;100517.88;;;9.83;100.00
22688;BME280;11511;51.514;7.080;2023-04-15T08:12:19;100524.16;;;10.29;100.00
22688;BME280;11511;51.514;7.080;2023-04-15T08:14:45;100532.38;;;10.67;100.00
